sensor_id;sensor_type;location;lat;lon;timestamp;pressure;altitude;pressure_sealevel;temperature;humidity
47080;BME280;33067;49.296;14.470;2023-04-27T00:01:26;97172.57;;;9.98;36.91
47080;BME280;33067;49.296;14.470;2023-04-27T00:03:52;97174.24;;;10.17;36.66
47080;BME280;33067;49.296;14.470;2023-04-27T00:06:18;97173.15;;;10.03;36.88
47080;BME280;33067;49.296;14.470;2023-04-27T00:08:43;97169.44;;;9.85;37.04
47080;BME280;33067;49.296;14.470;2023-04-27T00:11:09;97168.58;;;9.91;36.94
47080;BME280;33067;49.296;14.470;2023-04-27T00:13:34;97167.90;;;9.86;36.59
47080;BME280;33067;49.296;14.470;2023-04-27T00:16:00;97162.05;;;9.68;37.25
47080;BME280;33067;49.296;14.470;2023-04-27T00:18:25;97164.01;;;9.62;37.09
47080;BME280;33067;49.296;14.470;2023-04-27T00:20:50;97162.16;;;9.78;37.21
47080;BME280;33067;49.296;14.470;2023-04-27T00:23:16;97160.59;;;9.80;37.09
47080;BME280;33067;49.296;14.470;2023-04-27T00:25:41;97158.15;;;9.64;37.20
47080;BME280;33067;49.296;14.470;2023-04-27T00:28:06;97155.58;;;9.71;36.99
47080;BME280;33067;49.296;14.470;2023-04-27T00:30:31;97156.70;;;9.75;36.92
47080;BME280;33067;49.296;14.470;2023-04-27T00:32:57;97157.50;;;9.53;36.90
47080;BME280;33067;49.296;14.470;2023-04-27T00:35:22;97154.84;;;9.66;36.79
47080;BME280;33067;49.296;14.470;2023-04-27T00:37:48;97155.43;;;9.60;36.62
47080;BME280;33067;49.296;14.470;2023-04-27T00:40:13;97151.37;;;9.70;36.80
47080;BME280;33067;49.296;14.470;2023-04-27T00:42:39;97151.23;;;9.72;36.59
47080;BME280;33067;49.296;14.470;2023-04-27T00:45:05;97152.02;;;9.73;36.47
47080;BME280;33067;49.296;14.470;2023-04-27T00:47:30;97151.46;;;9.58;36.76
47080;BME280;33067;49.296;14.470;2023-04-27T00:49:55;97150.56;;;9.55;36.71
47080;BME280;33067;49.296;14.470;2023-04-27T00:52:21;97155.09;;;9.47;36.86
47080;BME280;33067;49.296;14.470;2023-04-27T00:54:49;97154.56;;;9.29;37.50
47080;BME280;33067;49.296;14.470;2023-04-27T00:57:12;97154.39;;;8.96;37.75
47080;BME280;33067;49.296;14.470;2023-04-27T00:59:37;97153.44;;;9.37;37.10
47080;BME280;33067;49.296;14.470;2023-04-27T01:02:02;97153.90;;;9.32;37.30
47080;BME280;33067;49.296;14.470;2023-04-27T01:04:29;97152.26;;;9.34;37.27
47080;BME280;33067;49.296;14.470;2023-04-27T01:06:53;97155.38;;;8.68;38.12
47080;BME280;33067;49.296;14.470;2023-04-27T01:09:19;97156.65;;;7.92;38.11
47080;BME280;33067;49.296;14.470;2023-04-27T01:11:44;97158.60;;;8.11;38.29
47080;BME280;33067;49.296;14.470;2023-04-27T01:14:09;97158.41;;;7.77;38.54
47080;BME280;33067;49.296;14.470;2023-04-27T01:16:35;97151.98;;;8.27;38.31
47080;BME280;33067;49.296;14.470;2023-04-27T01:19:00;97151.04;;;8.16;37.88
47080;BME280;33067;49.296;14.470;2023-04-27T01:21:25;97151.40;;;8.29;38.71
47080;BME280;33067;49.296;14.470;2023-04-27T01:23:50;97154.33;;;8.48;38.73
47080;BME280;33067;49.296;14.470;2023-04-27T01:26:16;97158.10;;;8.90;38.37
47080;BME280;33067;49.296;14.470;2023-04-27T01:28:41;97158.93;;;8.95;38.36
47080;BME280;33067;49.296;14.470;2023-04-27T01:31:08;97157.99;;;8.63;38.46
47080;BME280;33067;49.296;14.470;2023-04-27T01:33:33;97160.12;;;9.10;38.39
47080;BME280;33067;49.296;14.470;2023-04-27T01:35:59;97160.29;;;8.98;38.35
47080;BME280;33067;49.296;14.470;2023-04-27T01:38:24;97166.36;;;7.87;38.84
47080;BME280;33067;49.296;14.470;2023-04-27T01:40:50;97165.92;;;7.44;40.14
47080;BME280;33067;49.296;14.470;2023-04-27T01:43:15;97164.49;;;7.36;40.41
47080;BME280;33067;49.296;14.470;2023-04-27T01:45:40;97163.52;;;7.73;39.99
47080;BME280;33067;49.296;14.470;2023-04-27T01:48:06;97167.07;;;7.79;40.10
47080;BME280;33067;49.296;14.470;2023-04-27T01:50:31;97164.78;;;7.87;39.07
47080;BME280;33067;49.296;14.470;2023-04-27T01:52:58;97163.14;;;7.95;38.58
47080;BME280;33067;49.296;14.470;2023-04-27T01:55:22;97165.95;;;7.96;39.18
47080;BME280;33067;49.296;14.470;2023-04-27T01:57:47;97165.28;;;8.17;39.58
47080;BME280;33067;49.296;14.470;2023-04-27T02:00:15;97167.50;;;8.05;40.29
47080;BME280;33067;49.296;14.470;2023-04-27T02:02:38;97170.44;;;8.20;39.90
47080;BME280;33067;49.296;14.470;2023-04-27T02:05:04;97167.95;;;7.84;40.00
47080;BME280;33067;49.296;14.470;2023-04-27T02:07:29;97167.82;;;8.33;39.76
47080;BME280;33067;49.296;14.470;2023-04-27T02:09:55;97169.68;;;8.00;40.22
47080;BME280;33067;49.296;14.470;2023-04-27T02:13:00;97167.25;;;8.69;39.27
47080;BME280;33067;49.296;14.470;2023-04-27T02:15:25;97172.02;;;8.44;39.72
47080;BME280;33067;49.296;14.470;2023-04-27T02:17:50;97175.88;;;8.48;39.54
47080;BME280;33067;49.296;14.470;2023-04-27T02:20:16;97177.82;;;8.41;39.79
47080;BME280;33067;49.296;14.470;2023-04-27T02:22:42;97182.81;;;8.42;39.79
47080;BME280;33067;49.296;14.470;2023-04-27T02:25:08;97184.63;;;8.64;39.84
47080;BME280;33067;49.296;14.470;2023-04-27T02:27:32;97183.16;;;8.43;39.70
47080;BME280;33067;49.296;14.470;2023-04-27T02:29:58;97183.95;;;8.07;39.65
47080;BME280;33067;49.296;14.470;2023-04-27T02:32:23;97186.04;;;8.42;38.87
47080;BME280;33067;49.296;14.470;2023-04-27T02:34:49;97185.58;;;8.68;38.04
47080;BME280;33067;49.296;14.470;2023-04-27T02:37:15;97184.19;;;8.55;38.28
47080;BME280;33067;49.296;14.470;2023-04-27T02:39:40;97181.92;;;8.42;38.52
47080;BME280;33067;49.296;14.470;2023-04-27T02:42:05;97181.78;;;8.46;38.53
47080;BME280;33067;49.296;14.470;2023-04-27T02:44:31;97181.66;;;8.56;38.35
47080;BME280;33067;49.296;14.470;2023-04-27T02:46:56;97180.26;;;8.13;38.62
47080;BME280;33067;49.296;14.470;2023-04-27T02:49:22;97180.07;;;8.07;39.01
47080;BME280;33067;49.296;14.470;2023-04-27T02:51:47;97177.64;;;8.22;38.88
47080;BME280;33067;49.296;14.470;2023-04-27T02:54:13;97176.27;;;8.09;39.25
47080;BME280;33067;49.296;14.470;2023-04-27T02:56:38;97178.15;;;7.89;39.14
47080;BME280;33067;49.296;14.470;2023-04-27T02:59:03;97179.09;;;8.27;38.81
47080;BME280;33067;49.296;14.470;2023-04-27T03:01:28;97175.92;;;8.34;38.61
47080;BME280;33067;49.296;14.470;2023-04-27T03:03:54;97176.86;;;8.14;38.90
47080;BME280;33067;49.296;14.470;2023-04-27T03:06:19;97175.57;;;8.15;39.08
47080;BME280;33067;49.296;14.470;2023-04-27T03:08:45;97170.26;;;8.34;38.73
47080;BME280;33067;49.296;14.470;2023-04-27T03:11:11;97170.85;;;8.20;38.96
47080;BME280;33067;49.296;14.470;2023-04-27T03:13:37;97173.97;;;8.56;38.49
47080;BME280;33067;49.296;14.470;2023-04-27T03:16:02;97175.97;;;8.47;38.64
47080;BME280;33067;49.296;14.470;2023-04-27T03:18:27;97176.22;;;8.18;38.18
47080;BME280;33067;49.296;14.470;2023-04-27T03:20:53;97178.20;;;7.87;38.73
47080;BME280;33067;49.296;14.470;2023-04-27T03:23:19;97179.57;;;7.93;38.71
47080;BME280;33067;49.296;14.470;2023-04-27T03:25:44;97179.85;;;8.00;38.99
47080;BME280;33067;49.296;14.470;2023-04-27T03:28:09;97176.43;;;8.39;38.67
47080;BME280;33067;49.296;14.470;2023-04-27T03:30:37;97178.17;;;8.50;38.28
47080;BME280;33067;49.296;14.470;2023-04-27T03:33:00;97179.02;;;8.05;38.02
47080;BME280;33067;49.296;14.470;2023-04-27T03:35:25;97182.07;;;8.45;38.39
47080;BME280;33067;49.296;14.470;2023-04-27T03:37:51;97181.96;;;8.05;39.06
47080;BME280;33067;49.296;14.470;2023-04-27T03:40:17;97182.35;;;8.16;39.07
47080;BME280;33067;49.296;14.470;2023-04-27T03:42:43;97181.20;;;8.21;38.90
47080;BME280;33067;49.296;14.470;2023-04-27T03:45:09;97178.52;;;8.41;38.59
47080;BME280;33067;49.296;14.470;2023-04-27T03:47:34;97177.87;;;8.48;38.58
47080;BME280;33067;49.296;14.470;2023-04-27T03:50:00;97180.87;;;8.66;37.49
47080;BME280;33067;49.296;14.470;2023-04-27T03:52:25;97185.12;;;8.36;37.78
47080;BME280;33067;49.296;14.470;2023-04-27T03:54:50;97186.26;;;8.27;37.99
47080;BME280;33067;49.296;14.470;2023-04-27T03:57:16;97189.89;;;8.21;38.05
47080;BME280;33067;49.296;14.470;2023-04-27T03:59:41;97190.25;;;7.92;38.46
47080;BME280;33067;49.296;14.470;2023-04-27T04:02:07;97193.69;;;7.89;38.46
47080;BME280;33067;49.296;14.470;2023-04-27T04:04:33;97193.07;;;8.36;38.16
47080;BME280;33067;49.296;14.470;2023-04-27T04:06:58;97193.03;;;8.33;38.32
47080;BME280;33067;49.296;14.470;2023-04-27T04:09:23;97193.27;;;8.67;37.98
47080;BME280;33067;49.296;14.470;2023-04-27T04:11:50;97195.93;;;8.31;36.95
47080;BME280;33067;49.296;14.470;2023-04-27T04:14:14;97197.24;;;7.54;37.91
47080;BME280;33067;49.296;14.470;2023-04-27T04:16:39;97199.40;;;7.94;37.68
47080;BME280;33067;49.296;14.470;2023-04-27T04:19:05;97202.46;;;8.04;38.25
47080;BME280;33067;49.296;14.470;2023-04-27T04:21:31;97204.91;;;7.20;38.55
47080;BME280;33067;49.296;14.470;2023-04-27T04:23:56;97206.16;;;7.31;38.43
47080;BME280;33067;49.296;14.470;2023-04-27T04:26:21;97210.78;;;6.95;38.66
47080;BME280;33067;49.296;14.470;2023-04-27T04:28:47;97215.09;;;6.96;39.32
47080;BME280;33067;49.296;14.470;2023-04-27T04:31:13;97211.76;;;7.60;38.85
47080;BME280;33067;49.296;14.470;2023-04-27T04:33:39;97211.21;;;7.76;38.30
47080;BME280;33067;49.296;14.470;2023-04-27T04:36:05;97211.86;;;7.99;38.10
47080;BME280;33067;49.296;14.470;2023-04-27T04:38:29;97215.69;;;7.37;38.69
47080;BME280;33067;49.296;14.470;2023-04-27T04:40:54;97218.31;;;7.23;39.51
47080;BME280;33067;49.296;14.470;2023-04-27T04:43:19;97220.13;;;7.69;39.19
47080;BME280;33067;49.296;14.470;2023-04-27T04:45:45;97221.59;;;7.84;38.85
47080;BME280;33067;49.296;14.470;2023-04-27T04:48:13;97226.00;;;7.65;38.89
47080;BME280;33067;49.296;14.470;2023-04-27T04:50:38;97229.06;;;7.91;39.05
47080;BME280;33067;49.296;14.470;2023-04-27T04:53:01;97231.42;;;7.55;39.53
47080;BME280;33067;49.296;14.470;2023-04-27T04:55:26;97231.80;;;7.37;39.75
47080;BME280;33067;49.296;14.470;2023-04-27T04:57:52;97232.18;;;7.25;39.54
47080;BME280;33067;49.296;14.470;2023-04-27T05:00:18;97235.97;;;7.53;39.02
47080;BME280;33067;49.296;14.470;2023-04-27T05:02:43;97236.87;;;7.87;38.42
47080;BME280;33067;49.296;14.470;2023-04-27T05:05:09;97236.16;;;7.91;38.37
47080;BME280;33067;49.296;14.470;2023-04-27T05:07:35;97236.76;;;7.75;37.95
47080;BME280;33067;49.296;14.470;2023-04-27T05:10:00;97236.78;;;7.74;37.81
47080;BME280;33067;49.296;14.470;2023-04-27T05:12:25;97241.81;;;7.92;37.75
47080;BME280;33067;49.296;14.470;2023-04-27T05:14:51;97243.82;;;8.93;37.00
47080;BME280;33067;49.296;14.470;2023-04-27T05:17:16;97244.17;;;8.11;37.48
47080;BME280;33067;49.296;14.470;2023-04-27T05:19:42;97244.61;;;8.08;37.80
47080;BME280;33067;49.296;14.470;2023-04-27T05:22:08;97243.58;;;7.69;38.67
47080;BME280;33067;49.296;14.470;2023-04-27T05:24:33;97245.44;;;7.59;39.00
47080;BME280;33067;49.296;14.470;2023-04-27T05:26:59;97243.18;;;8.16;38.43
47080;BME280;33067;49.296;14.470;2023-04-27T05:29:24;97241.20;;;8.53;37.86
47080;BME280;33067;49.296;14.470;2023-04-27T05:31:49;97238.05;;;8.44;37.72
47080;BME280;33067;49.296;14.470;2023-04-27T05:34:15;97240.99;;;8.18;38.11
47080;BME280;33067;49.296;14.470;2023-04-27T05:36:41;97242.11;;;8.84;37.71
47080;BME280;33067;49.296;14.470;2023-04-27T05:39:06;97243.55;;;8.42;37.96
47080;BME280;33067;49.296;14.470;2023-04-27T05:41:32;97247.29;;;8.39;37.56
47080;BME280;33067;49.296;14.470;2023-04-27T05:43:57;97247.40;;;8.44;37.26
47080;BME280;33067;49.296;14.470;2023-04-27T05:46:23;97246.36;;;8.21;36.98
47080;BME280;33067;49.296;14.470;2023-04-27T05:48:48;97248.37;;;8.56;36.82
47080;BME280;33067;49.296;14.470;2023-04-27T05:51:14;97248.19;;;7.63;36.81
47080;BME280;33067;49.296;14.470;2023-04-27T05:53:39;97250.67;;;8.55;36.57
47080;BME280;33067;49.296;14.470;2023-04-27T05:56:05;97253.03;;;8.49;36.49
47080;BME280;33067;49.296;14.470;2023-04-27T05:58:30;97253.13;;;8.16;36.92
47080;BME280;33067;49.296;14.470;2023-04-27T06:00:55;97255.95;;;8.56;36.51
47080;BME280;33067;49.296;14.470;2023-04-27T06:03:21;97257.14;;;8.72;36.52
47080;BME280;33067;49.296;14.470;2023-04-27T06:05:46;97259.77;;;8.37;36.83
47080;BME280;33067;49.296;14.470;2023-04-27T06:08:12;97258.43;;;8.33;36.66
47080;BME280;33067;49.296;14.470;2023-04-27T06:10:37;97253.33;;;8.09;37.38
47080;BME280;33067;49.296;14.470;2023-04-27T06:13:03;97251.11;;;8.34;37.06
47080;BME280;33067;49.296;14.470;2023-04-27T06:15:28;97247.48;;;8.33;36.89
47080;BME280;33067;49.296;14.470;2023-04-27T06:17:54;97249.63;;;8.69;37.34
47080;BME280;33067;49.296;14.470;2023-04-27T06:20:20;97251.31;;;8.47;37.68
47080;BME280;33067;49.296;14.470;2023-04-27T06:22:45;97245.72;;;8.79;37.44
47080;BME280;33067;49.296;14.470;2023-04-27T06:25:10;97243.75;;;8.94;37.33
47080;BME280;33067;49.296;14.470;2023-04-27T06:27:36;97246.72;;;9.01;37.05
47080;BME280;33067;49.296;14.470;2023-04-27T06:30:02;97248.74;;;9.19;37.24
47080;BME280;33067;49.296;14.470;2023-04-27T06:32:27;97254.35;;;8.90;37.23
47080;BME280;33067;49.296;14.470;2023-04-27T06:34:53;97257.95;;;8.49;37.14
47080;BME280;33067;49.296;14.470;2023-04-27T06:37:18;97261.37;;;8.22;38.04
47080;BME280;33067;49.296;14.470;2023-04-27T06:39:44;97259.15;;;9.08;37.11
47080;BME280;33067;49.296;14.470;2023-04-27T06:42:09;97260.69;;;8.91;37.00
47080;BME280;33067;49.296;14.470;2023-04-27T06:44:35;97262.09;;;9.09;37.25
47080;BME280;33067;49.296;14.470;2023-04-27T06:47:01;97266.99;;;8.49;37.49
47080;BME280;33067;49.296;14.470;2023-04-27T06:49:26;97263.12;;;8.98;37.03
47080;BME280;33067;49.296;14.470;2023-04-27T06:51:52;97267.50;;;8.62;37.48
47080;BME280;33067;49.296;14.470;2023-04-27T06:54:18;97262.37;;;9.33;36.80
47080;BME280;33067;49.296;14.470;2023-04-27T06:56:43;97266.33;;;9.03;37.16
47080;BME280;33067;49.296;14.470;2023-04-27T06:59:09;97273.87;;;8.69;37.41
47080;BME280;33067;49.296;14.470;2023-04-27T07:01:35;97269.72;;;8.62;36.96
47080;BME280;33067;49.296;14.470;2023-04-27T07:04:01;97266.99;;;9.40;35.92
47080;BME280;33067;49.296;14.470;2023-04-27T07:06:26;97263.59;;;10.04;34.82
47080;BME280;33067;49.296;14.470;2023-04-27T07:08:51;97262.05;;;10.09;35.48
47080;BME280;33067;49.296;14.470;2023-04-27T07:11:17;97263.60;;;9.80;35.42
47080;BME280;33067;49.296;14.470;2023-04-27T07:13:42;97265.86;;;9.90;35.35
47080;BME280;33067;49.296;14.470;2023-04-27T07:16:07;97265.44;;;10.03;35.03
47080;BME280;33067;49.296;14.470;2023-04-27T07:18:33;97265.98;;;10.27;34.84
47080;BME280;33067;49.296;14.470;2023-04-27T07:20:58;97265.85;;;10.63;34.28
47080;BME280;33067;49.296;14.470;2023-04-27T07:23:23;97259.19;;;10.23;34.18
47080;BME280;33067;49.296;14.470;2023-04-27T07:25:49;97256.93;;;9.98;34.64
47080;BME280;33067;49.296;14.470;2023-04-27T07:28:15;97262.65;;;11.00;33.59
47080;BME280;33067;49.296;14.470;2023-04-27T07:30:40;97267.52;;;11.16;32.87
47080;BME280;33067;49.296;14.470;2023-04-27T07:33:05;97270.20;;;11.43;32.67
47080;BME280;33067;49.296;14.470;2023-04-27T07:35:30;97267.53;;;11.60;32.38
47080;BME280;33067;49.296;14.470;2023-04-27T07:37:55;97259.44;;;11.88;31.96
47080;BME280;33067;49.296;14.470;2023-04-27T07:40:21;97257.50;;;12.20;31.25
47080;BME280;33067;49.296;14.470;2023-04-27T07:42:46;97266.46;;;11.61;31.76
47080;BME280;33067;49.296;14.470;2023-04-27T07:45:11;97265.20;;;12.29;30.51
47080;BME280;33067;49.296;14.470;2023-04-27T07:47:37;97270.43;;;12.29;30.06
47080;BME280;33067;49.296;14.470;2023-04-27T07:50:02;97270.05;;;12.63;29.27
47080;BME280;33067;49.296;14.470;2023-04-27T07:52:28;97272.26;;;11.82;29.97
47080;BME280;33067;49.296;14.470;2023-04-27T07:54:53;97270.50;;;12.59;30.29
47080;BME280;33067;49.296;14.470;2023-04-27T07:57:18;97272.22;;;13.26;28.94
47080;BME280;33067;49.296;14.470;2023-04-27T07:59:44;97271.02;;;12.56;29.08
47080;BME280;33067;49.296;14.470;2023-04-27T08:02:09;97272.11;;;12.99;28.92
47080;BME280;33067;49.296;14.470;2023-04-27T08:04:34;97276.03;;;13.02;28.59
47080;BME280;33067;49.296;14.470;2023-04-27T08:07:00;97279.14;;;13.14;28.43
47080;BME280;33067;49.296;14.470;2023-04-27T08:09:26;97278.26;;;13.23;29.00
47080;BME280;33067;49.296;14.470;2023-04-27T08:11:52;97275.30;;;13.95;27.84
47080;BME280;33067;49.296;14.470;2023-04-27T08:14:17;97273.82;;;13.60;27.78
47080;BME280;33067;49.296;14.470;2023-04-27T08:16:43;97267.90;;;13.90;26.85
47080;BME280;33067;49.296;14.470;2023-04-27T08:19:09;97270.73;;;13.75;27.04
47080;BME280;33067;49.296;14.470;2023-04-27T08:21:33;97268.21;;;14.04;26.49
47080;BME280;33067;49.296;14.470;2023-04-27T08:23:58;97266.98;;;14.44;26.50
47080;BME280;33067;49.296;14.470;2023-04-27T08:26:24;97263.43;;;14.24;26.28
47080;BME280;33067;49.296;14.470;2023-04-27T08:28:49;97262.09;;;14.47;25.70
47080;BME280;33067;49.296;14.470;2023-04-27T08:31:14;97264.19;;;14.30;25.11
47080;BME280;33067;49.296;14.470;2023-04-27T08:33:40;97264.81;;;14.90;24.87
47080;BME280;33067;49.296;14.470;2023-04-27T08:36:06;97265.79;;;14.45;25.55
47080;BME280;33067;49.296;14.470;2023-04-27T08:38:33;97265.05;;;14.56;25.64
47080;BME280;33067;49.296;14.470;2023-04-27T08:40:56;97261.92;;;15.00;25.33
47080;BME280;33067;49.296;14.470;2023-04-27T08:43:21;97263.07;;;14.89;25.20
47080;BME280;33067;49.296;14.470;2023-04-27T08:45:48;97263.03;;;15.40;24.98
47080;BME280;33067;49.296;14.470;2023-04-27T08:48:12;97262.77;;;15.60;24.89
47080;BME280;33067;49.296;14.470;2023-04-27T08:50:41;97261.89;;;15.72;24.77
47080;BME280;33067;49.296;14.470;2023-04-27T08:53:04;97264.08;;;15.01;24.88
47080;BME280;33067;49.296;14.470;2023-04-27T08:55:29;97267.03;;;14.67;25.27
47080;BME280;33067;49.296;14.470;2023-04-27T08:57:55;97265.38;;;15.45;24.89
47080;BME280;33067;49.296;14.470;2023-04-27T09:00:20;97263.89;;;15.65;24.76
47080;BME280;33067;49.296;14.470;2023-04-27T09:02:46;97263.66;;;15.95;23.95
47080;BME280;33067;49.296;14.470;2023-04-27T09:05:15;97260.37;;;15.25;24.48
47080;BME280;33067;49.296;14.470;2023-04-27T09:07:36;97258.07;;;16.29;23.15
47080;BME280;33067;49.296;14.470;2023-04-27T09:10:08;97257.51;;;16.28;22.72
47080;BME280;33067;49.296;14.470;2023-04-27T09:12:27;97252.62;;;17.08;21.88
47080;BME280;33067;49.296;14.470;2023-04-27T09:14:56;97252.32;;;16.18;21.82
47080;BME280;33067;49.296;14.470;2023-04-27T09:17:24;97254.04;;;15.61;22.44
47080;BME280;33067;49.296;14.470;2023-04-27T09:19:43;97251.75;;;16.05;22.05
47080;BME280;33067;49.296;14.470;2023-04-27T09:22:10;97254.84;;;14.95;22.83
47080;BME280;33067;49.296;14.470;2023-04-27T09:24:33;97254.77;;;14.26;23.49
47080;BME280;33067;49.296;14.470;2023-04-27T09:26:58;97253.31;;;15.15;22.82
47080;BME280;33067;49.296;14.470;2023-04-27T09:29:32;97252.92;;;15.42;22.66
47080;BME280;33067;49.296;14.470;2023-04-27T09:31:49;97252.15;;;15.77;22.97
47080;BME280;33067;49.296;14.470;2023-04-27T09:34:15;97252.66;;;15.56;23.04
47080;BME280;33067;49.296;14.470;2023-04-27T09:36:40;97249.40;;;15.94;22.53
47080;BME280;33067;49.296;14.470;2023-04-27T09:39:05;97242.78;;;16.46;22.23
47080;BME280;33067;49.296;14.470;2023-04-27T09:41:31;97234.85;;;16.43;22.15
47080;BME280;33067;49.296;14.470;2023-04-27T09:43:56;97230.80;;;16.83;22.54
47080;BME280;33067;49.296;14.470;2023-04-27T09:46:22;97227.92;;;16.05;22.61
47080;BME280;33067;49.296;14.470;2023-04-27T09:48:47;97228.82;;;15.91;22.87
47080;BME280;33067;49.296;14.470;2023-04-27T09:51:13;97230.31;;;15.46;22.28
47080;BME280;33067;49.296;14.470;2023-04-27T09:53:42;97233.63;;;16.05;22.12
47080;BME280;33067;49.296;14.470;2023-04-27T09:56:12;97230.09;;;16.66;21.62
47080;BME280;33067;49.296;14.470;2023-04-27T09:58:41;97223.31;;;16.98;21.72
47080;BME280;33067;49.296;14.470;2023-04-27T10:03:22;97218.51;;;17.15;20.79
47080;BME280;33067;49.296;14.470;2023-04-27T10:08:09;97223.04;;;17.56;20.39
47080;BME280;33067;49.296;14.470;2023-04-27T10:10:42;97219.06;;;16.81;20.39
47080;BME280;33067;49.296;14.470;2023-04-27T10:13:02;97214.34;;;16.75;20.38
47080;BME280;33067;49.296;14.470;2023-04-27T10:15:29;97212.72;;;15.91;21.18
47080;BME280;33067;49.296;14.470;2023-04-27T10:17:51;97211.57;;;16.17;21.41
47080;BME280;33067;49.296;14.470;2023-04-27T10:20:14;97218.38;;;15.09;22.51
47080;BME280;33067;49.296;14.470;2023-04-27T10:22:42;97220.06;;;15.04;22.79
47080;BME280;33067;49.296;14.470;2023-04-27T10:25:16;97224.86;;;15.96;22.48
47080;BME280;33067;49.296;14.470;2023-04-27T10:27:37;97224.12;;;14.20;23.17
47080;BME280;33067;49.296;14.470;2023-04-27T10:30:06;97221.76;;;14.41;22.70
47080;BME280;33067;49.296;14.470;2023-04-27T10:32:23;97211.89;;;15.04;22.77
47080;BME280;33067;49.296;14.470;2023-04-27T10:34:48;97205.75;;;15.36;21.62
47080;BME280;33067;49.296;14.470;2023-04-27T10:37:13;97193.86;;;16.45;21.15
47080;BME280;33067;49.296;14.470;2023-04-27T10:39:40;97191.17;;;16.07;21.66
47080;BME280;33067;49.296;14.470;2023-04-27T10:42:04;97190.38;;;16.12;21.02
47080;BME280;33067;49.296;14.470;2023-04-27T10:44:29;97193.11;;;15.51;21.57
47080;BME280;33067;49.296;14.470;2023-04-27T10:46:55;97200.28;;;13.57;22.98
47080;BME280;33067;49.296;14.470;2023-04-27T10:49:19;97202.52;;;15.50;22.03
47080;BME280;33067;49.296;14.470;2023-04-27T10:51:44;97203.48;;;15.16;21.88
47080;BME280;33067;49.296;14.470;2023-04-27T10:54:10;97201.17;;;15.50;21.42
47080;BME280;33067;49.296;14.470;2023-04-27T10:56:35;97203.72;;;15.57;21.25
47080;BME280;33067;49.296;14.470;2023-04-27T10:59:01;97200.53;;;15.87;21.29
47080;BME280;33067;49.296;14.470;2023-04-27T11:01:26;97199.72;;;15.18;21.68
47080;BME280;33067;49.296;14.470;2023-04-27T11:03:54;97198.69;;;13.51;22.75
47080;BME280;33067;49.296;14.470;2023-04-27T11:06:16;97198.27;;;14.85;21.66
47080;BME280;33067;49.296;14.470;2023-04-27T11:08:43;97196.63;;;15.85;21.03
47080;BME280;33067;49.296;14.470;2023-04-27T11:11:12;97198.27;;;15.59;21.17
47080;BME280;33067;49.296;14.470;2023-04-27T11:13:32;97185.44;;;15.93;21.63
47080;BME280;33067;49.296;14.470;2023-04-27T11:15:58;97182.52;;;16.51;20.14
47080;BME280;33067;49.296;14.470;2023-04-27T11:18:24;97186.06;;;16.90;19.62
47080;BME280;33067;49.296;14.470;2023-04-27T11:20:49;97178.98;;;17.47;18.86
47080;BME280;33067;49.296;14.470;2023-04-27T11:23:22;97184.84;;;16.99;18.93
47080;BME280;33067;49.296;14.470;2023-04-27T11:25:39;97185.93;;;17.33;18.83
47080;BME280;33067;49.296;14.470;2023-04-27T11:28:04;97188.42;;;16.77;18.96
47080;BME280;33067;49.296;14.470;2023-04-27T11:30:29;97185.36;;;16.89;18.71
47080;BME280;33067;49.296;14.470;2023-04-27T11:32:55;97183.87;;;16.35;19.28
47080;BME280;33067;49.296;14.470;2023-04-27T11:35:31;97180.91;;;16.48;19.55
47080;BME280;33067;49.296;14.470;2023-04-27T11:37:55;97180.11;;;16.29;19.88
47080;BME280;33067;49.296;14.470;2023-04-27T11:40:12;97173.89;;;16.02;19.62
47080;BME280;33067;49.296;14.470;2023-04-27T11:42:37;97173.25;;;16.02;19.71
47080;BME280;33067;49.296;14.470;2023-04-27T11:45:04;97179.65;;;14.64;20.86
47080;BME280;33067;49.296;14.470;2023-04-27T11:47:29;97179.51;;;15.44;20.66
47080;BME280;33067;49.296;14.470;2023-04-27T11:49:55;97187.77;;;15.15;20.49
47080;BME280;33067;49.296;14.470;2023-04-27T11:52:18;97181.52;;;16.32;20.13
47080;BME280;33067;49.296;14.470;2023-04-27T11:54:47;97177.76;;;16.05;19.62
47080;BME280;33067;49.296;14.470;2023-04-27T11:57:09;97178.18;;;16.95;19.36
47080;BME280;33067;49.296;14.470;2023-04-27T11:59:34;97172.64;;;16.32;20.17
47080;BME280;33067;49.296;14.470;2023-04-27T12:01:59;97176.52;;;16.74;19.95
47080;BME280;33067;49.296;14.470;2023-04-27T12:04:25;97170.31;;;16.08;19.46
47080;BME280;33067;49.296;14.470;2023-04-27T12:06:50;97165.75;;;15.61;20.11
47080;BME280;33067;49.296;14.470;2023-04-27T12:09:15;97170.31;;;13.24;21.71
47080;BME280;33067;49.296;14.470;2023-04-27T12:11:40;97173.48;;;14.31;21.20
47080;BME280;33067;49.296;14.470;2023-04-27T12:14:06;97169.21;;;15.38;20.35
47080;BME280;33067;49.296;14.470;2023-04-27T12:16:31;97177.31;;;14.38;21.27
47080;BME280;33067;49.296;14.470;2023-04-27T12:18:58;97175.76;;;14.79;20.76
47080;BME280;33067;49.296;14.470;2023-04-27T12:21:22;97176.09;;;15.22;20.03
47080;BME280;33067;49.296;14.470;2023-04-27T12:23:47;97179.62;;;15.14;20.26
47080;BME280;33067;49.296;14.470;2023-04-27T12:26:12;97180.34;;;15.73;20.56
47080;BME280;33067;49.296;14.470;2023-04-27T12:28:37;97176.58;;;15.67;19.49
47080;BME280;33067;49.296;14.470;2023-04-27T12:31:04;97175.75;;;15.43;19.43
47080;BME280;33067;49.296;14.470;2023-04-27T12:33:28;97179.20;;;14.56;19.78
47080;BME280;33067;49.296;14.470;2023-04-27T12:35:54;97172.11;;;16.15;18.82
47080;BME280;33067;49.296;14.470;2023-04-27T12:38:20;97170.08;;;16.26;18.90
47080;BME280;33067;49.296;14.470;2023-04-27T12:40:46;97170.71;;;15.94;19.57
47080;BME280;33067;49.296;14.470;2023-04-27T12:43:11;97176.19;;;15.22;19.79
47080;BME280;33067;49.296;14.470;2023-04-27T12:45:36;97178.47;;;15.11;20.13
47080;BME280;33067;49.296;14.470;2023-04-27T12:48:01;97173.21;;;15.41;19.82
47080;BME280;33067;49.296;14.470;2023-04-27T12:50:26;97168.93;;;15.76;19.18